Terminal Aerodrome Forecast
Issued by NWS

Home | Current Version | Previous Version | Text Only | Print | Product List | Glossary Off
Versions: 1 2 3 4 5 6 7 8 9 10 11 12 13 14 15 16 17 18 19 20 21 22 23 24 25 26 27 28 29 30 31

000
FTUS43 KLOT 251140
TAFDPA
TAF
KDPA 251140Z 2512/2612 04011G16KT 3SM -SHRA BR OVC006
      TEMPO 2512/2516 1SM -DZ BR OVC003
     FM251800 07012KT 3SM -SHRA BR OVC007
     FM260000 09009KT 2SM -RADZ BR BKN005 OVC010=

USA.gov is the U.S. government's official web portal to all federal, state and local government web resources and services.